sensor_id;sensor_type;location;lat;lon;timestamp;P1;durP1;ratioP1;P2;durP2;ratioP2
60241;SDS011;46103;52.076;113.488;2023-06-14T00:03:47;7.68;;;3.10;;
60241;SDS011;46103;52.076;113.488;2023-06-14T00:06:55;6.78;;;3.00;;
60241;SDS011;46103;52.076;113.488;2023-06-14T00:14:36;6.22;;;2.55;;
60241;SDS011;46103;52.076;113.488;2023-06-14T00:17:41;13.18;;;3.40;;
60241;SDS011;46103;52.076;113.488;2023-06-14T00:20:46;9.20;;;3.47;;
60241;SDS011;46103;52.076;113.488;2023-06-14T00:36:19;8.40;;;3.08;;
60241;SDS011;46103;52.076;113.488;2023-06-14T00:40:36;5.28;;;2.80;;
60241;SDS011;46103;52.076;113.488;2023-06-14T00:43:47;6.05;;;2.90;;
60241;SDS011;46103;52.076;113.488;2023-06-14T00:47:39;9.48;;;2.85;;
60241;SDS011;46103;52.076;113.488;2023-06-14T00:51:13;9.40;;;3.30;;
60241;SDS011;46103;52.076;113.488;2023-06-14T00:54:40;11.02;;;3.08;;
60241;SDS011;46103;52.076;113.488;2023-06-14T00:57:45;5.90;;;2.80;;
60241;SDS011;46103;52.076;113.488;2023-06-14T01:00:50;8.70;;;3.00;;
60241;SDS011;46103;52.076;113.488;2023-06-14T01:08:11;10.20;;;3.67;;
60241;SDS011;46103;52.076;113.488;2023-06-14T01:11:32;6.38;;;2.95;;
60241;SDS011;46103;52.076;113.488;2023-06-14T01:14:46;9.23;;;3.05;;
60241;SDS011;46103;52.076;113.488;2023-06-14T01:17:53;7.53;;;2.88;;
60241;SDS011;46103;52.076;113.488;2023-06-14T01:21:19;7.18;;;3.10;;
60241;SDS011;46103;52.076;113.488;2023-06-14T01:24:25;6.60;;;3.03;;
60241;SDS011;46103;52.076;113.488;2023-06-14T01:27:32;6.57;;;2.70;;
60241;SDS011;46103;52.076;113.488;2023-06-14T01:30:36;5.18;;;2.95;;
60241;SDS011;46103;52.076;113.488;2023-06-14T01:33:49;6.28;;;3.00;;
60241;SDS011;46103;52.076;113.488;2023-06-14T01:36:54;9.68;;;3.30;;
60241;SDS011;46103;52.076;113.488;2023-06-14T01:39:59;9.50;;;3.58;;
60241;SDS011;46103;52.076;113.488;2023-06-14T01:43:04;8.88;;;3.10;;
60241;SDS011;46103;52.076;113.488;2023-06-14T01:46:10;10.93;;;3.70;;
60241;SDS011;46103;52.076;113.488;2023-06-14T01:49:16;7.50;;;3.00;;
60241;SDS011;46103;52.076;113.488;2023-06-14T01:52:21;6.90;;;3.25;;
60241;SDS011;46103;52.076;113.488;2023-06-14T01:55:27;8.50;;;3.25;;
60241;SDS011;46103;52.076;113.488;2023-06-14T01:58:31;12.75;;;3.72;;
60241;SDS011;46103;52.076;113.488;2023-06-14T02:01:36;8.85;;;3.47;;
60241;SDS011;46103;52.076;113.488;2023-06-14T02:04:40;6.70;;;2.95;;
60241;SDS011;46103;52.076;113.488;2023-06-14T02:07:48;9.63;;;3.65;;
60241;SDS011;46103;52.076;113.488;2023-06-14T02:10:57;8.13;;;2.90;;
60241;SDS011;46103;52.076;113.488;2023-06-14T02:14:36;6.80;;;3.38;;
60241;SDS011;46103;52.076;113.488;2023-06-14T02:17:41;11.30;;;3.28;;
60241;SDS011;46103;52.076;113.488;2023-06-14T02:20:46;8.80;;;3.03;;
60241;SDS011;46103;52.076;113.488;2023-06-14T02:23:51;7.93;;;3.10;;
60241;SDS011;46103;52.076;113.488;2023-06-14T02:26:59;8.77;;;4.13;;
60241;SDS011;46103;52.076;113.488;2023-06-14T02:30:04;12.02;;;2.85;;
60241;SDS011;46103;52.076;113.488;2023-06-14T02:33:08;8.48;;;3.30;;
60241;SDS011;46103;52.076;113.488;2023-06-14T02:36:15;8.60;;;3.30;;
60241;SDS011;46103;52.076;113.488;2023-06-14T02:39:19;14.57;;;6.65;;
60241;SDS011;46103;52.076;113.488;2023-06-14T02:42:24;10.55;;;3.38;;
60241;SDS011;46103;52.076;113.488;2023-06-14T02:45:28;11.18;;;3.50;;
60241;SDS011;46103;52.076;113.488;2023-06-14T02:48:31;11.13;;;4.43;;
60241;SDS011;46103;52.076;113.488;2023-06-14T02:51:35;6.93;;;2.95;;
60241;SDS011;46103;52.076;113.488;2023-06-14T02:54:39;7.05;;;2.40;;
60241;SDS011;46103;52.076;113.488;2023-06-14T02:57:44;9.98;;;2.90;;
60241;SDS011;46103;52.076;113.488;2023-06-14T03:03:56;6.88;;;2.72;;
60241;SDS011;46103;52.076;113.488;2023-06-14T03:07:01;11.98;;;2.70;;
60241;SDS011;46103;52.076;113.488;2023-06-14T03:10:07;10.82;;;2.90;;
60241;SDS011;46103;52.076;113.488;2023-06-14T03:13:18;7.68;;;2.65;;
60241;SDS011;46103;52.076;113.488;2023-06-14T03:16:26;9.75;;;2.50;;
60241;SDS011;46103;52.076;113.488;2023-06-14T03:19:33;12.23;;;2.70;;
60241;SDS011;46103;52.076;113.488;2023-06-14T03:22:38;6.25;;;2.42;;
60241;SDS011;46103;52.076;113.488;2023-06-14T03:25:42;3.90;;;2.20;;
60241;SDS011;46103;52.076;113.488;2023-06-14T03:28:47;4.78;;;1.67;;
60241;SDS011;46103;52.076;113.488;2023-06-14T03:31:57;5.28;;;2.42;;
60241;SDS011;46103;52.076;113.488;2023-06-14T03:35:10;5.65;;;2.15;;
60241;SDS011;46103;52.076;113.488;2023-06-14T03:38:22;3.85;;;2.00;;
60241;SDS011;46103;52.076;113.488;2023-06-14T03:41:26;5.03;;;2.10;;
60241;SDS011;46103;52.076;113.488;2023-06-14T03:44:30;4.57;;;2.05;;
60241;SDS011;46103;52.076;113.488;2023-06-14T03:47:35;8.25;;;2.10;;
60241;SDS011;46103;52.076;113.488;2023-06-14T03:50:41;5.25;;;2.10;;
60241;SDS011;46103;52.076;113.488;2023-06-14T03:53:46;5.97;;;2.72;;
60241;SDS011;46103;52.076;113.488;2023-06-14T03:57:11;4.68;;;2.03;;
60241;SDS011;46103;52.076;113.488;2023-06-14T04:00:16;4.93;;;2.10;;
60241;SDS011;46103;52.076;113.488;2023-06-14T04:03:21;9.05;;;3.10;;
60241;SDS011;46103;52.076;113.488;2023-06-14T04:06:28;5.13;;;2.25;;
60241;SDS011;46103;52.076;113.488;2023-06-14T04:09:38;5.07;;;2.00;;
60241;SDS011;46103;52.076;113.488;2023-06-14T04:12:43;2.97;;;1.77;;
60241;SDS011;46103;52.076;113.488;2023-06-14T04:15:47;3.15;;;2.00;;
60241;SDS011;46103;52.076;113.488;2023-06-14T04:18:57;2.90;;;1.98;;
60241;SDS011;46103;52.076;113.488;2023-06-14T04:22:02;5.15;;;1.67;;
60241;SDS011;46103;52.076;113.488;2023-06-14T04:25:10;5.88;;;1.95;;
60241;SDS011;46103;52.076;113.488;2023-06-14T04:28:17;3.50;;;1.80;;
60241;SDS011;46103;52.076;113.488;2023-06-14T04:31:22;6.00;;;2.03;;
60241;SDS011;46103;52.076;113.488;2023-06-14T04:34:32;2.75;;;1.90;;
60241;SDS011;46103;52.076;113.488;2023-06-14T04:37:38;9.82;;;2.60;;
60241;SDS011;46103;52.076;113.488;2023-06-14T04:40:44;4.20;;;1.90;;
60241;SDS011;46103;52.076;113.488;2023-06-14T04:43:51;3.30;;;1.85;;
60241;SDS011;46103;52.076;113.488;2023-06-14T04:46:56;4.43;;;2.25;;
60241;SDS011;46103;52.076;113.488;2023-06-14T04:50:01;6.70;;;2.20;;
60241;SDS011;46103;52.076;113.488;2023-06-14T04:53:06;4.93;;;2.20;;
60241;SDS011;46103;52.076;113.488;2023-06-14T04:56:10;4.53;;;1.90;;
60241;SDS011;46103;52.076;113.488;2023-06-14T04:59:14;3.17;;;1.98;;
60241;SDS011;46103;52.076;113.488;2023-06-14T05:02:21;5.77;;;2.27;;
60241;SDS011;46103;52.076;113.488;2023-06-14T05:05:28;4.80;;;2.03;;
60241;SDS011;46103;52.076;113.488;2023-06-14T05:08:34;7.00;;;1.90;;
60241;SDS011;46103;52.076;113.488;2023-06-14T05:11:38;4.05;;;2.10;;
60241;SDS011;46103;52.076;113.488;2023-06-14T05:14:42;4.22;;;1.80;;
60241;SDS011;46103;52.076;113.488;2023-06-14T05:17:46;4.90;;;1.85;;
60241;SDS011;46103;52.076;113.488;2023-06-14T05:20:58;4.68;;;1.85;;
60241;SDS011;46103;52.076;113.488;2023-06-14T05:24:01;3.88;;;1.88;;
60241;SDS011;46103;52.076;113.488;2023-06-14T05:27:06;4.55;;;2.00;;
60241;SDS011;46103;52.076;113.488;2023-06-14T05:30:10;9.65;;;2.20;;
60241;SDS011;46103;52.076;113.488;2023-06-14T05:33:15;3.65;;;2.10;;
60241;SDS011;46103;52.076;113.488;2023-06-14T05:36:19;3.58;;;2.00;;
60241;SDS011;46103;52.076;113.488;2023-06-14T05:39:24;5.80;;;2.20;;
60241;SDS011;46103;52.076;113.488;2023-06-14T05:42:29;4.60;;;2.22;;
60241;SDS011;46103;52.076;113.488;2023-06-14T05:45:34;9.73;;;2.60;;
60241;SDS011;46103;52.076;113.488;2023-06-14T05:48:38;5.93;;;2.28;;
60241;SDS011;46103;52.076;113.488;2023-06-14T05:51:45;5.30;;;2.25;;
60241;SDS011;46103;52.076;113.488;2023-06-14T05:54:48;6.50;;;2.20;;
60241;SDS011;46103;52.076;113.488;2023-06-14T05:57:52;6.63;;;1.90;;
60241;SDS011;46103;52.076;113.488;2023-06-14T06:00:56;5.00;;;1.92;;
60241;SDS011;46103;52.076;113.488;2023-06-14T06:04:01;4.43;;;1.83;;
60241;SDS011;46103;52.076;113.488;2023-06-14T06:07:20;4.03;;;1.83;;
60241;SDS011;46103;52.076;113.488;2023-06-14T06:10:25;6.10;;;2.17;;
60241;SDS011;46103;52.076;113.488;2023-06-14T06:13:29;3.22;;;1.88;;
60241;SDS011;46103;52.076;113.488;2023-06-14T06:16:34;3.65;;;1.70;;
60241;SDS011;46103;52.076;113.488;2023-06-14T06:19:38;4.38;;;2.05;;
60241;SDS011;46103;52.076;113.488;2023-06-14T06:22:44;3.90;;;1.98;;
60241;SDS011;46103;52.076;113.488;2023-06-14T06:25:50;7.70;;;1.90;;
60241;SDS011;46103;52.076;113.488;2023-06-14T06:28:57;3.92;;;2.00;;
60241;SDS011;46103;52.076;113.488;2023-06-14T06:32:04;8.50;;;2.25;;
60241;SDS011;46103;52.076;113.488;2023-06-14T06:35:16;4.97;;;2.33;;
60241;SDS011;46103;52.076;113.488;2023-06-14T06:38:22;2.87;;;1.80;;
60241;SDS011;46103;52.076;113.488;2023-06-14T06:41:27;5.10;;;2.30;;
60241;SDS011;46103;52.076;113.488;2023-06-14T06:44:32;8.57;;;2.00;;
60241;SDS011;46103;52.076;113.488;2023-06-14T06:47:37;3.03;;;2.08;;
60241;SDS011;46103;52.076;113.488;2023-06-14T06:50:48;6.85;;;1.92;;
60241;SDS011;46103;52.076;113.488;2023-06-14T06:53:57;4.55;;;2.40;;
60241;SDS011;46103;52.076;113.488;2023-06-14T06:57:08;4.45;;;2.08;;
60241;SDS011;46103;52.076;113.488;2023-06-14T07:00:18;6.57;;;1.90;;
60241;SDS011;46103;52.076;113.488;2023-06-14T07:03:30;5.60;;;2.10;;
60241;SDS011;46103;52.076;113.488;2023-06-14T07:06:38;3.97;;;2.10;;
60241;SDS011;46103;52.076;113.488;2023-06-14T07:09:50;3.85;;;2.10;;
60241;SDS011;46103;52.076;113.488;2023-06-14T07:12:58;6.10;;;2.00;;
60241;SDS011;46103;52.076;113.488;2023-06-14T07:16:07;7.60;;;2.47;;
60241;SDS011;46103;52.076;113.488;2023-06-14T07:19:15;10.13;;;2.20;;
60241;SDS011;46103;52.076;113.488;2023-06-14T07:22:24;3.83;;;1.85;;
60241;SDS011;46103;52.076;113.488;2023-06-14T07:25:36;7.10;;;1.77;;
60241;SDS011;46103;52.076;113.488;2023-06-14T07:28:47;4.10;;;2.10;;
60241;SDS011;46103;52.076;113.488;2023-06-14T07:31:58;3.83;;;1.98;;
60241;SDS011;46103;52.076;113.488;2023-06-14T07:35:07;5.38;;;1.83;;
60241;SDS011;46103;52.076;113.488;2023-06-14T07:38:15;3.53;;;2.00;;
60241;SDS011;46103;52.076;113.488;2023-06-14T07:41:29;4.13;;;1.85;;
60241;SDS011;46103;52.076;113.488;2023-06-14T07:44:38;2.78;;;1.75;;
60241;SDS011;46103;52.076;113.488;2023-06-14T07:47:48;4.97;;;2.10;;
60241;SDS011;46103;52.076;113.488;2023-06-14T07:50:57;8.85;;;2.20;;
60241;SDS011;46103;52.076;113.488;2023-06-14T07:54:09;5.20;;;1.80;;
60241;SDS011;46103;52.076;113.488;2023-06-14T07:57:17;8.02;;;1.90;;
60241;SDS011;46103;52.076;113.488;2023-06-14T08:00:26;3.30;;;1.77;;
60241;SDS011;46103;52.076;113.488;2023-06-14T08:03:34;8.55;;;2.20;;
60241;SDS011;46103;52.076;113.488;2023-06-14T08:06:43;7.25;;;2.08;;
60241;SDS011;46103;52.076;113.488;2023-06-14T08:09:53;6.95;;;2.20;;
60241;SDS011;46103;52.076;113.488;2023-06-14T08:13:01;7.38;;;2.50;;
60241;SDS011;46103;52.076;113.488;2023-06-14T08:16:09;7.25;;;2.92;;
60241;SDS011;46103;52.076;113.488;2023-06-14T08:19:21;3.05;;;1.80;;
60241;SDS011;46103;52.076;113.488;2023-06-14T08:22:28;3.13;;;1.58;;
60241;SDS011;46103;52.076;113.488;2023-06-14T08:25:39;5.43;;;1.60;;
60241;SDS011;46103;52.076;113.488;2023-06-14T08:28:46;4.65;;;2.10;;
60241;SDS011;46103;52.076;113.488;2023-06-14T08:31:53;6.93;;;2.50;;
60241;SDS011;46103;52.076;113.488;2023-06-14T08:34:59;6.28;;;2.40;;
60241;SDS011;46103;52.076;113.488;2023-06-14T08:38:09;7.63;;;3.30;;
60241;SDS011;46103;52.076;113.488;2023-06-14T08:41:21;3.10;;;1.63;;
60241;SDS011;46103;52.076;113.488;2023-06-14T08:44:30;5.60;;;1.90;;
60241;SDS011;46103;52.076;113.488;2023-06-14T08:47:38;3.97;;;1.40;;
60241;SDS011;46103;52.076;113.488;2023-06-14T08:50:47;4.03;;;1.63;;
60241;SDS011;46103;52.076;113.488;2023-06-14T08:53:57;3.40;;;1.85;;
60241;SDS011;46103;52.076;113.488;2023-06-14T08:57:17;4.95;;;2.00;;
60241;SDS011;46103;52.076;113.488;2023-06-14T09:00:27;7.68;;;2.30;;
60241;SDS011;46103;52.076;113.488;2023-06-14T09:03:39;7.03;;;2.00;;
60241;SDS011;46103;52.076;113.488;2023-06-14T09:06:47;9.30;;;1.77;;
60241;SDS011;46103;52.076;113.488;2023-06-14T09:10:15;6.15;;;1.70;;
60241;SDS011;46103;52.076;113.488;2023-06-14T09:13:26;5.20;;;2.08;;
60241;SDS011;46103;52.076;113.488;2023-06-14T09:16:35;6.28;;;1.90;;
60241;SDS011;46103;52.076;113.488;2023-06-14T09:19:42;4.70;;;2.10;;
60241;SDS011;46103;52.076;113.488;2023-06-14T09:22:51;4.07;;;1.75;;
60241;SDS011;46103;52.076;113.488;2023-06-14T09:26:11;2.88;;;1.50;;
60241;SDS011;46103;52.076;113.488;2023-06-14T09:29:23;6.38;;;1.98;;
60241;SDS011;46103;52.076;113.488;2023-06-14T09:32:36;4.70;;;1.70;;
60241;SDS011;46103;52.076;113.488;2023-06-14T09:35:50;4.88;;;2.00;;
60241;SDS011;46103;52.076;113.488;2023-06-14T09:39:02;2.85;;;1.50;;
60241;SDS011;46103;52.076;113.488;2023-06-14T09:42:18;4.22;;;1.65;;
60241;SDS011;46103;52.076;113.488;2023-06-14T09:45:27;3.03;;;1.50;;
60241;SDS011;46103;52.076;113.488;2023-06-14T09:48:38;3.13;;;1.75;;
60241;SDS011;46103;52.076;113.488;2023-06-14T09:51:50;3.33;;;1.60;;
60241;SDS011;46103;52.076;113.488;2023-06-14T09:54:58;5.88;;;1.85;;
60241;SDS011;46103;52.076;113.488;2023-06-14T09:58:06;9.18;;;1.90;;
60241;SDS011;46103;52.076;113.488;2023-06-14T10:01:20;5.50;;;1.88;;
60241;SDS011;46103;52.076;113.488;2023-06-14T10:04:29;7.57;;;2.83;;
60241;SDS011;46103;52.076;113.488;2023-06-14T10:07:42;5.80;;;1.95;;
60241;SDS011;46103;52.076;113.488;2023-06-14T10:10:55;10.27;;;2.15;;
60241;SDS011;46103;52.076;113.488;2023-06-14T10:14:06;3.55;;;1.70;;
60241;SDS011;46103;52.076;113.488;2023-06-14T10:17:17;4.25;;;1.83;;
60241;SDS011;46103;52.076;113.488;2023-06-14T10:21:00;7.50;;;2.33;;
60241;SDS011;46103;52.076;113.488;2023-06-14T10:24:41;9.40;;;2.20;;
60241;SDS011;46103;52.076;113.488;2023-06-14T10:31:40;6.05;;;2.20;;
60241;SDS011;46103;52.076;113.488;2023-06-14T10:35:07;10.18;;;2.30;;
60241;SDS011;46103;52.076;113.488;2023-06-14T10:38:29;6.13;;;2.38;;
60241;SDS011;46103;52.076;113.488;2023-06-14T10:41:38;5.43;;;2.17;;
60241;SDS011;46103;52.076;113.488;2023-06-14T10:44:46;6.97;;;2.03;;
60241;SDS011;46103;52.076;113.488;2023-06-14T10:47:56;5.28;;;2.20;;
60241;SDS011;46103;52.076;113.488;2023-06-14T10:51:18;8.05;;;3.97;;
60241;SDS011;46103;52.076;113.488;2023-06-14T10:54:27;9.93;;;2.63;;
60241;SDS011;46103;52.076;113.488;2023-06-14T10:57:39;4.22;;;1.58;;
60241;SDS011;46103;52.076;113.488;2023-06-14T11:00:57;4.75;;;2.15;;
60241;SDS011;46103;52.076;113.488;2023-06-14T11:04:09;4.93;;;2.10;;
60241;SDS011;46103;52.076;113.488;2023-06-14T11:10:58;7.32;;;2.45;;
60241;SDS011;46103;52.076;113.488;2023-06-14T11:14:08;7.10;;;2.10;;
60241;SDS011;46103;52.076;113.488;2023-06-14T11:17:14;6.43;;;2.80;;
60241;SDS011;46103;52.076;113.488;2023-06-14T11:20:25;3.53;;;1.80;;
60241;SDS011;46103;52.076;113.488;2023-06-14T11:23:36;3.58;;;1.73;;
60241;SDS011;46103;52.076;113.488;2023-06-14T11:26:44;4.30;;;1.77;;
60241;SDS011;46103;52.076;113.488;2023-06-14T11:29:52;9.35;;;2.00;;
60241;SDS011;46103;52.076;113.488;2023-06-14T11:32:57;8.80;;;2.53;;
60241;SDS011;46103;52.076;113.488;2023-06-14T11:36:05;5.88;;;1.90;;
60241;SDS011;46103;52.076;113.488;2023-06-14T11:39:15;6.65;;;2.75;;
60241;SDS011;46103;52.076;113.488;2023-06-14T11:42:18;7.40;;;2.22;;
60241;SDS011;46103;52.076;113.488;2023-06-14T11:45:22;9.45;;;2.95;;
60241;SDS011;46103;52.076;113.488;2023-06-14T11:48:41;7.65;;;3.38;;
60241;SDS011;46103;52.076;113.488;2023-06-14T11:51:46;5.30;;;2.58;;
60241;SDS011;46103;52.076;113.488;2023-06-14T11:54:50;6.18;;;1.83;;
60241;SDS011;46103;52.076;113.488;2023-06-14T11:57:56;9.95;;;2.85;;
60241;SDS011;46103;52.076;113.488;2023-06-14T12:01:00;4.85;;;1.80;;
60241;SDS011;46103;52.076;113.488;2023-06-14T12:04:08;6.38;;;2.38;;
60241;SDS011;46103;52.076;113.488;2023-06-14T12:07:13;5.25;;;1.73;;
60241;SDS011;46103;52.076;113.488;2023-06-14T12:10:22;6.68;;;2.30;;
60241;SDS011;46103;52.076;113.488;2023-06-14T12:13:26;8.00;;;2.05;;
60241;SDS011;46103;52.076;113.488;2023-06-14T12:16:34;6.60;;;1.90;;
60241;SDS011;46103;52.076;113.488;2023-06-14T12:19:43;8.40;;;2.00;;
60241;SDS011;46103;52.076;113.488;2023-06-14T12:26:00;5.82;;;1.75;;
60241;SDS011;46103;52.076;113.488;2023-06-14T12:29:04;6.03;;;1.80;;
60241;SDS011;46103;52.076;113.488;2023-06-14T12:32:10;3.28;;;1.70;;
60241;SDS011;46103;52.076;113.488;2023-06-14T12:35:15;4.03;;;1.90;;
60241;SDS011;46103;52.076;113.488;2023-06-14T12:38:21;4.38;;;1.88;;
60241;SDS011;46103;52.076;113.488;2023-06-14T12:41:39;4.97;;;2.10;;
60241;SDS011;46103;52.076;113.488;2023-06-14T12:44:45;4.40;;;2.05;;
60241;SDS011;46103;52.076;113.488;2023-06-14T12:47:49;6.82;;;2.33;;
60241;SDS011;46103;52.076;113.488;2023-06-14T12:50:55;6.72;;;2.45;;
60241;SDS011;46103;52.076;113.488;2023-06-14T12:54:00;10.73;;;2.83;;
60241;SDS011;46103;52.076;113.488;2023-06-14T12:57:05;5.90;;;2.78;;
60241;SDS011;46103;52.076;113.488;2023-06-14T13:00:09;7.25;;;2.67;;
60241;SDS011;46103;52.076;113.488;2023-06-14T13:03:14;8.18;;;3.00;;
60241;SDS011;46103;52.076;113.488;2023-06-14T13:06:20;6.38;;;2.30;;
60241;SDS011;46103;52.076;113.488;2023-06-14T13:09:28;9.68;;;3.47;;
60241;SDS011;46103;52.076;113.488;2023-06-14T13:12:32;8.35;;;3.50;;
60241;SDS011;46103;52.076;113.488;2023-06-14T13:15:36;8.70;;;2.95;;
60241;SDS011;46103;52.076;113.488;2023-06-14T13:18:39;5.63;;;2.78;;
60241;SDS011;46103;52.076;113.488;2023-06-14T13:21:44;9.68;;;3.38;;
60241;SDS011;46103;52.076;113.488;2023-06-14T13:24:57;8.50;;;3.50;;
60241;SDS011;46103;52.076;113.488;2023-06-14T13:28:16;7.28;;;3.30;;
60241;SDS011;46103;52.076;113.488;2023-06-14T13:31:21;9.82;;;3.72;;
60241;SDS011;46103;52.076;113.488;2023-06-14T13:39:25;9.38;;;3.50;;
60241;SDS011;46103;52.076;113.488;2023-06-14T13:45:46;7.57;;;4.30;;
60241;SDS011;46103;52.076;113.488;2023-06-14T13:48:50;9.05;;;4.15;;
60241;SDS011;46103;52.076;113.488;2023-06-14T13:51:54;11.63;;;4.25;;
60241;SDS011;46103;52.076;113.488;2023-06-14T13:54:58;8.45;;;2.70;;
60241;SDS011;46103;52.076;113.488;2023-06-14T13:58:03;14.32;;;4.70;;
60241;SDS011;46103;52.076;113.488;2023-06-14T14:01:08;8.57;;;3.67;;
60241;SDS011;46103;52.076;113.488;2023-06-14T14:04:12;7.55;;;3.60;;
60241;SDS011;46103;52.076;113.488;2023-06-14T14:07:18;11.10;;;3.85;;
60241;SDS011;46103;52.076;113.488;2023-06-14T14:10:24;9.38;;;4.15;;
60241;SDS011;46103;52.076;113.488;2023-06-14T14:13:33;12.48;;;4.47;;
60241;SDS011;46103;52.076;113.488;2023-06-14T14:16:39;17.57;;;6.40;;
60241;SDS011;46103;52.076;113.488;2023-06-14T14:19:42;15.15;;;5.28;;
60241;SDS011;46103;52.076;113.488;2023-06-14T14:22:51;12.98;;;6.00;;
60241;SDS011;46103;52.076;113.488;2023-06-14T14:26:44;12.90;;;4.53;;
60241;SDS011;46103;52.076;113.488;2023-06-14T14:29:53;12.10;;;4.03;;
60241;SDS011;46103;52.076;113.488;2023-06-14T14:32:58;9.45;;;4.05;;
60241;SDS011;46103;52.076;113.488;2023-06-14T14:36:03;10.77;;;3.78;;
60241;SDS011;46103;52.076;113.488;2023-06-14T14:39:09;7.90;;;3.22;;
60241;SDS011;46103;52.076;113.488;2023-06-14T14:42:29;7.38;;;3.00;;
60241;SDS011;46103;52.076;113.488;2023-06-14T14:45:46;8.18;;;2.92;;
60241;SDS011;46103;52.076;113.488;2023-06-14T14:48:50;7.70;;;3.63;;
60241;SDS011;46103;52.076;113.488;2023-06-14T14:51:54;8.55;;;2.72;;
60241;SDS011;46103;52.076;113.488;2023-06-14T14:55:16;9.45;;;3.72;;
60241;SDS011;46103;52.076;113.488;2023-06-14T14:58:20;14.07;;;3.97;;
60241;SDS011;46103;52.076;113.488;2023-06-14T15:01:25;8.00;;;3.45;;
60241;SDS011;46103;52.076;113.488;2023-06-14T15:04:33;12.25;;;4.00;;
60241;SDS011;46103;52.076;113.488;2023-06-14T15:07:38;20.25;;;4.10;;
60241;SDS011;46103;52.076;113.488;2023-06-14T15:10:57;5.35;;;3.17;;
60241;SDS011;46103;52.076;113.488;2023-06-14T15:14:06;11.57;;;3.30;;
60241;SDS011;46103;52.076;113.488;2023-06-14T15:20:30;11.98;;;3.65;;
60241;SDS011;46103;52.076;113.488;2023-06-14T15:23:35;9.35;;;4.13;;
60241;SDS011;46103;52.076;113.488;2023-06-14T15:26:49;10.38;;;4.45;;
60241;SDS011;46103;52.076;113.488;2023-06-14T15:29:54;16.85;;;4.50;;
60241;SDS011;46103;52.076;113.488;2023-06-14T15:32:58;15.32;;;4.85;;
60241;SDS011;46103;52.076;113.488;2023-06-14T15:36:03;15.05;;;7.07;;
60241;SDS011;46103;52.076;113.488;2023-06-14T15:39:09;9.80;;;4.83;;
60241;SDS011;46103;52.076;113.488;2023-06-14T15:42:14;11.40;;;4.57;;
60241;SDS011;46103;52.076;113.488;2023-06-14T15:45:19;12.15;;;4.72;;
60241;SDS011;46103;52.076;113.488;2023-06-14T15:48:23;16.65;;;4.85;;
60241;SDS011;46103;52.076;113.488;2023-06-14T15:51:28;11.73;;;4.18;;
60241;SDS011;46103;52.076;113.488;2023-06-14T15:54:33;14.40;;;4.25;;
60241;SDS011;46103;52.076;113.488;2023-06-14T15:57:38;10.82;;;3.60;;
60241;SDS011;46103;52.076;113.488;2023-06-14T16:00:46;10.15;;;3.75;;
60241;SDS011;46103;52.076;113.488;2023-06-14T16:03:50;8.50;;;3.55;;
60241;SDS011;46103;52.076;113.488;2023-06-14T16:06:55;11.85;;;4.63;;
60241;SDS011;46103;52.076;113.488;2023-06-14T16:09:59;12.30;;;3.90;;
60241;SDS011;46103;52.076;113.488;2023-06-14T16:13:03;14.65;;;2.75;;
60241;SDS011;46103;52.076;113.488;2023-06-14T16:16:09;9.40;;;3.15;;
60241;SDS011;46103;52.076;113.488;2023-06-14T16:19:12;6.68;;;3.25;;
60241;SDS011;46103;52.076;113.488;2023-06-14T16:22:17;8.73;;;3.08;;
60241;SDS011;46103;52.076;113.488;2023-06-14T16:25:22;4.93;;;2.55;;
60241;SDS011;46103;52.076;113.488;2023-06-14T16:28:29;6.57;;;2.83;;
60241;SDS011;46103;52.076;113.488;2023-06-14T16:31:35;4.85;;;2.10;;
60241;SDS011;46103;52.076;113.488;2023-06-14T16:34:40;6.25;;;2.70;;
60241;SDS011;46103;52.076;113.488;2023-06-14T16:37:47;10.57;;;2.50;;
60241;SDS011;46103;52.076;113.488;2023-06-14T16:40:51;8.82;;;2.72;;
60241;SDS011;46103;52.076;113.488;2023-06-14T16:43:55;10.98;;;3.30;;
60241;SDS011;46103;52.076;113.488;2023-06-14T16:47:04;9.20;;;2.88;;
60241;SDS011;46103;52.076;113.488;2023-06-14T16:50:10;9.88;;;3.10;;
60241;SDS011;46103;52.076;113.488;2023-06-14T16:53:13;7.82;;;3.10;;
60241;SDS011;46103;52.076;113.488;2023-06-14T16:56:19;11.35;;;4.22;;
60241;SDS011;46103;52.076;113.488;2023-06-14T16:59:23;7.72;;;3.55;;
60241;SDS011;46103;52.076;113.488;2023-06-14T17:02:28;10.82;;;3.85;;
60241;SDS011;46103;52.076;113.488;2023-06-14T17:05:33;6.50;;;2.60;;
60241;SDS011;46103;52.076;113.488;2023-06-14T17:08:38;8.05;;;2.75;;
60241;SDS011;46103;52.076;113.488;2023-06-14T17:11:42;7.43;;;3.00;;
60241;SDS011;46103;52.076;113.488;2023-06-14T17:14:47;7.45;;;3.17;;
60241;SDS011;46103;52.076;113.488;2023-06-14T17:17:53;6.55;;;2.72;;
60241;SDS011;46103;52.076;113.488;2023-06-14T17:20:58;8.10;;;3.22;;
60241;SDS011;46103;52.076;113.488;2023-06-14T17:24:02;9.07;;;2.40;;
60241;SDS011;46103;52.076;113.488;2023-06-14T17:27:26;5.00;;;2.35;;
60241;SDS011;46103;52.076;113.488;2023-06-14T17:30:30;4.18;;;2.47;;
60241;SDS011;46103;52.076;113.488;2023-06-14T17:33:35;6.15;;;2.28;;
60241;SDS011;46103;52.076;113.488;2023-06-14T17:36:38;3.60;;;1.85;;
60241;SDS011;46103;52.076;113.488;2023-06-14T17:39:42;5.95;;;2.10;;
60241;SDS011;46103;52.076;113.488;2023-06-14T17:42:47;5.57;;;2.13;;
60241;SDS011;46103;52.076;113.488;2023-06-14T17:45:51;3.22;;;1.98;;
60241;SDS011;46103;52.076;113.488;2023-06-14T17:52:02;3.83;;;1.85;;
60241;SDS011;46103;52.076;113.488;2023-06-14T17:55:06;6.07;;;2.33;;
60241;SDS011;46103;52.076;113.488;2023-06-14T17:58:12;4.63;;;2.10;;
60241;SDS011;46103;52.076;113.488;2023-06-14T18:01:15;3.63;;;2.10;;
60241;SDS011;46103;52.076;113.488;2023-06-14T18:04:22;3.45;;;2.10;;
60241;SDS011;46103;52.076;113.488;2023-06-14T18:07:26;5.75;;;2.17;;
60241;SDS011;46103;52.076;113.488;2023-06-14T18:10:31;5.88;;;2.47;;
60241;SDS011;46103;52.076;113.488;2023-06-14T18:13:35;4.18;;;2.28;;
60241;SDS011;46103;52.076;113.488;2023-06-14T18:16:40;7.35;;;2.63;;
60241;SDS011;46103;52.076;113.488;2023-06-14T18:19:44;6.20;;;2.63;;
60241;SDS011;46103;52.076;113.488;2023-06-14T18:22:49;6.35;;;2.58;;
60241;SDS011;46103;52.076;113.488;2023-06-14T18:25:56;3.53;;;2.30;;
60241;SDS011;46103;52.076;113.488;2023-06-14T18:29:01;4.88;;;2.67;;
60241;SDS011;46103;52.076;113.488;2023-06-14T18:32:04;7.15;;;2.92;;
60241;SDS011;46103;52.076;113.488;2023-06-14T18:35:09;7.53;;;4.00;;
60241;SDS011;46103;52.076;113.488;2023-06-14T18:38:14;10.23;;;4.72;;
60241;SDS011;46103;52.076;113.488;2023-06-14T18:41:18;10.15;;;4.30;;
60241;SDS011;46103;52.076;113.488;2023-06-14T18:44:22;12.10;;;5.57;;
60241;SDS011;46103;52.076;113.488;2023-06-14T18:47:26;11.63;;;4.30;;
60241;SDS011;46103;52.076;113.488;2023-06-14T18:50:30;18.00;;;3.92;;
60241;SDS011;46103;52.076;113.488;2023-06-14T18:53:34;7.25;;;3.53;;
60241;SDS011;46103;52.076;113.488;2023-06-14T18:56:39;11.93;;;3.35;;
60241;SDS011;46103;52.076;113.488;2023-06-14T18:59:43;8.07;;;3.47;;
60241;SDS011;46103;52.076;113.488;2023-06-14T19:02:46;7.57;;;2.78;;
60241;SDS011;46103;52.076;113.488;2023-06-14T19:05:50;7.40;;;3.28;;
60241;SDS011;46103;52.076;113.488;2023-06-14T19:08:54;7.35;;;3.13;;